Time;durP1;ratioP1;P1;durP2;ratioP2;P2;SDS_P1;SDS_P2;PMS_P1;PMS_P2;Temp;Humidity;BMP_temperature;BMP_pressure;BME280_temperature;BME280_humidity;BME280_pressure;Samples;Min_cycle;Max_cycle;Signal;HPM_P1;HPM_P2
2021/06/28 00:01:51;;;;;;;4.50;3.08;;;;;;;21.92;61.15;101318.81;5034829;28;20111;-57
2021/06/28 00:04:16;;;;;;;4.97;3.20;;;;;;;21.92;61.36;101315.31;5034460;28;20353;-55
2021/06/28 00:06:41;;;;;;;4.70;3.20;;;;;;;21.91;61.43;101314.47;5033975;28;20362;-57
2021/06/28 00:09:09;;;;;;;5.43;3.20;;;;;;;21.91;61.28;101318.94;5034114;28;20048;-57
2021/06/28 00:11:34;;;;;;;4.53;3.13;;;;;;;21.92;61.17;101310.84;5034472;28;20084;-57
2021/06/28 00:13:59;;;;;;;4.40;2.97;;;;;;;21.91;61.09;101309.16;5033668;28;20436;-57
2021/06/28 00:16:25;;;;;;;5.43;3.33;;;;;;;21.89;61.20;101307.66;5033962;28;20100;-56
2021/06/28 00:18:53;;;;;;;5.53;3.25;;;;;;;21.90;61.19;101309.31;5033656;28;20052;-56
2021/06/28 00:21:19;;;;;;;4.60;3.13;;;;;;;21.89;61.19;101305.00;5034040;28;20024;-57
2021/06/28 00:23:44;;;;;;;4.20;3.13;;;;;;;21.89;61.10;101307.66;5033533;28;20030;-57
2021/06/28 00:26:10;;;;;;;4.95;3.15;;;;;;;21.89;61.20;101307.66;5033345;28;20021;-57
2021/06/28 00:28:35;;;;;;;4.50;3.17;;;;;;;21.88;61.29;101298.00;5033957;28;20132;-56
2021/06/28 00:31:00;;;;;;;4.38;3.25;;;;;;;21.88;61.14;101288.22;5034174;28;20083;-57
2021/06/28 00:33:30;;;;;;;4.78;2.97;;;;;;;21.88;61.15;101292.69;5033333;28;20030;-56
2021/06/28 00:35:55;;;;;;;4.50;3.20;;;;;;;21.87;61.15;101283.91;5034331;28;20389;-56
2021/06/28 00:38:23;;;;;;;5.10;3.63;;;;;;;21.86;61.02;101279.56;5033835;28;20113;-56
2021/06/28 00:40:49;;;;;;;5.47;3.72;;;;;;;21.87;61.06;101280.38;5033325;28;20049;-57
2021/06/28 00:43:18;;;;;;;4.75;3.33;;;;;;;21.85;61.20;101285.84;5033673;28;20080;-57
2021/06/28 00:45:43;;;;;;;5.13;3.20;;;;;;;21.86;61.10;101284.03;5034749;28;20025;-57
2021/06/28 00:48:11;;;;;;;4.82;3.53;;;;;;;21.85;61.02;101279.69;5033060;28;20037;-57
2021/06/28 00:50:57;;;;;;;4.63;3.33;;;;;;;21.85;61.36;101280.53;5033534;28;20026;-57
2021/06/28 00:53:24;;;;;;;5.13;3.50;;;;;;;21.84;61.14;101280.66;5033321;28;20036;-57
2021/06/28 00:55:50;;;;;;;4.72;3.30;;;;;;;21.85;60.96;101274.38;5032746;28;20488;-57
2021/06/28 00:58:16;;;;;;;5.07;3.63;;;;;;;21.85;61.21;101269.09;5033090;28;20037;-56
2021/06/28 01:00:43;;;;;;;5.07;3.60;;;;;;;21.86;61.08;101278.72;5033575;28;20040;-56
2021/06/28 01:03:08;;;;;;;5.38;3.50;;;;;;;21.84;61.09;101273.56;5032451;28;20116;-58
2021/06/28 01:05:36;;;;;;;5.20;3.60;;;;;;;21.83;61.15;101269.22;5033453;28;20112;-56
2021/06/28 01:08:03;;;;;;;7.60;3.60;;;;;;;21.83;61.13;101263.91;5032271;28;20049;-56
2021/06/28 01:10:29;;;;;;;4.78;3.58;;;;;;;21.83;61.07;101263.09;5033128;28;20426;-57
2021/06/28 01:12:55;;;;;;;5.13;3.70;;;;;;;21.83;61.00;101266.56;5033650;28;20079;-57
2021/06/28 01:15:21;;;;;;;5.47;3.60;;;;;;;21.82;61.09;101266.72;5032368;28;20078;-57
2021/06/28 01:17:48;;;;;;;4.72;3.38;;;;;;;21.82;61.08;101270.19;5033193;28;20544;-56
2021/06/28 01:20:16;;;;;;;5.55;3.85;;;;;;;21.83;61.01;101282.50;5031795;28;20414;-56
2021/06/28 01:22:52;;;;;;;4.95;3.53;;;;;;;21.82;61.03;101286.09;5032267;28;20034;-57
2021/06/28 01:25:22;;;;;;;4.97;3.60;;;;;;;21.83;61.05;101279.00;5033062;28;20100;-57
2021/06/28 01:27:48;;;;;;;5.05;3.60;;;;;;;21.82;61.10;101291.41;5033022;28;20087;-56
2021/06/28 01:30:21;;;;;;;4.82;3.55;;;;;;;21.80;60.79;101298.69;5031798;28;20404;-57
2021/06/28 01:32:49;;;;;;;4.80;3.42;;;;;;;21.82;61.13;101309.16;5032725;28;20495;-56
2021/06/28 01:35:15;;;;;;;4.95;3.28;;;;;;;21.83;61.10;101310.84;5031894;28;20022;-56
2021/06/28 01:37:41;;;;;;;5.38;3.40;;;;;;;21.79;61.17;101304.13;5031948;28;20021;-56
2021/06/28 01:40:09;;;;;;;5.03;3.47;;;;;;;21.81;60.71;101305.69;5032645;28;20050;-56
2021/06/28 01:42:37;;;;;;;5.55;3.67;;;;;;;21.81;60.89;101307.47;5032656;28;20036;-56
2021/06/28 01:45:12;;;;;;;5.25;3.80;;;;;;;21.80;60.84;101311.94;5031524;28;20025;-56
2021/06/28 01:47:41;;;;;;;5.28;3.53;;;;;;;21.80;60.93;101314.59;5032406;28;20362;-57
2021/06/28 01:50:08;;;;;;;4.85;3.50;;;;;;;21.80;60.97;101306.63;5032082;28;20130;-55
2021/06/28 01:52:34;;;;;;;4.70;3.45;;;;;;;21.81;60.95;101299.50;5032703;28;20018;-56
2021/06/28 01:54:59;;;;;;;4.97;3.50;;;;;;;21.80;60.77;101298.69;5032619;28;20025;-56
2021/06/28 01:57:25;;;;;;;4.90;3.38;;;;;;;21.74;60.87;101296.56;5031552;28;20104;-57
2021/06/28 01:59:50;;;;;;;4.60;3.30;;;;;;;21.78;60.95;101305.94;5032406;28;20167;-57
2021/06/28 02:02:15;;;;;;;5.00;3.63;;;;;;;21.78;60.93;101308.59;5031957;28;20037;-56
2021/06/28 02:04:40;;;;;;;4.40;3.30;;;;;;;21.78;60.65;101298.00;5031536;28;20270;-56
2021/06/28 02:07:07;;;;;;;4.75;3.30;;;;;;;21.77;60.82;101298.97;5032091;28;20360;-57
2021/06/28 02:09:34;;;;;;;4.85;3.53;;;;;;;21.76;61.01;101309.69;5032324;28;20029;-57
2021/06/28 02:11:59;;;;;;;6.03;3.58;;;;;;;21.78;60.87;101311.25;5031554;28;20334;-57
2021/06/28 02:14:25;;;;;;;4.55;3.30;;;;;;;21.79;60.78;101306.78;5031804;28;20029;-55
2021/06/28 02:16:51;;;;;;;4.82;3.22;;;;;;;21.78;60.73;101302.44;5032144;28;20100;-56
2021/06/28 02:19:17;;;;;;;4.90;3.20;;;;;;;21.77;60.80;101295.47;5031320;28;20033;-56
2021/06/28 02:21:47;;;;;;;5.22;3.35;;;;;;;21.76;60.83;101299.09;5032356;28;20052;-57
2021/06/28 02:24:14;;;;;;;4.93;3.53;;;;;;;21.77;60.69;101306.09;5032036;28;20326;-55
2021/06/28 02:26:41;;;;;;;4.70;3.42;;;;;;;21.77;60.83;101309.56;5031246;28;20440;-56
2021/06/28 02:29:06;;;;;;;4.60;3.20;;;;;;;21.76;60.77;101307.88;5031378;28;20045;-56
2021/06/28 02:31:35;;;;;;;4.30;3.13;;;;;;;21.76;60.81;101307.88;5031935;28;20037;-57
2021/06/28 02:34:03;;;;;;;4.63;3.42;;;;;;;21.76;60.73;101307.06;5031393;28;20065;-56
2021/06/28 02:36:29;;;;;;;4.72;3.45;;;;;;;21.74;60.74;101308.00;5031989;28;20132;-56
2021/06/28 02:38:55;;;;;;;4.93;3.50;;;;;;;21.74;60.63;101301.88;5031927;28;20061;-56
2021/06/28 02:41:21;;;;;;;4.47;3.30;;;;;;;21.74;60.62;101307.19;5030796;28;20140;-56
2021/06/28 02:43:50;;;;;;;5.63;3.35;;;;;;;21.72;60.83;101304.66;5031817;28;20021;-56
2021/06/28 02:46:20;;;;;;;5.25;3.55;;;;;;;21.72;60.56;101306.50;5031412;28;20438;-56
2021/06/28 02:48:46;;;;;;;5.10;3.60;;;;;;;21.74;60.63;101304.53;5035086;28;20029;-55
2021/06/28 02:51:13;;;;;;;4.32;3.15;;;;;;;21.72;60.52;101306.50;5035783;28;20025;-56
2021/06/28 02:53:41;;;;;;;5.00;3.38;;;;;;;21.72;60.57;101302.03;5035104;28;20021;-56
2021/06/28 02:56:13;;;;;;;4.80;3.50;;;;;;;21.73;60.57;101305.53;5035552;28;20109;-56
2021/06/28 02:58:40;;;;;;;5.97;3.63;;;;;;;21.72;60.58;101304.66;5035817;28;20444;-61
2021/06/28 03:01:05;;;;;;;5.72;3.60;;;;;;;21.72;60.56;101301.19;5034701;28;20033;-57
2021/06/28 03:03:31;;;;;;;5.38;3.60;;;;;;;21.72;60.39;101298.53;5035675;28;20021;-57
2021/06/28 03:05:56;;;;;;;4.80;3.58;;;;;;;21.70;60.59;101290.72;5035679;28;20024;-57
2021/06/28 03:08:21;;;;;;;4.47;3.40;;;;;;;21.70;60.42;101288.06;5034522;28;20047;-56
2021/06/28 03:10:46;;;;;;;5.67;3.57;;;;;;;21.71;60.58;101286.25;5035730;28;20029;-57
2021/06/28 03:13:12;;;;;;;4.38;3.10;;;;;;;21.71;60.41;101289.75;5035086;28;20267;-56
2021/06/28 03:15:37;;;;;;;4.95;3.20;;;;;;;21.70;60.32;101296.03;5034862;28;20025;-56
2021/06/28 03:18:02;;;;;;;5.07;3.60;;;;;;;21.70;60.38;101296.03;5035185;28;20025;-59
2021/06/28 03:20:28;;;;;;;5.30;3.58;;;;;;;21.70;60.56;101295.19;5035389;28;20124;-57
2021/06/28 03:22:53;;;;;;;4.70;3.45;;;;;;;21.69;60.23;101294.34;5034592;28;20089;-58
2021/06/28 03:25:18;;;;;;;4.70;3.33;;;;;;;21.69;60.31;101286.38;5035170;28;20484;-57
2021/06/28 03:27:44;;;;;;;5.60;3.50;;;;;;;21.70;60.34;101289.88;5034827;28;20057;-56
2021/06/28 03:30:13;;;;;;;4.75;3.40;;;;;;;21.69;60.19;101288.19;5034357;28;20025;-57
2021/06/28 03:32:39;;;;;;;4.75;3.50;;;;;;;21.68;60.31;101287.38;5035243;28;20033;-59
2021/06/28 03:35:10;;;;;;;4.57;3.38;;;;;;;21.67;60.13;101288.34;5034979;28;20121;-60
2021/06/28 03:37:37;;;;;;;5.03;3.25;;;;;;;21.69;60.23;101301.47;5034685;28;20108;-61
2021/06/28 03:40:04;;;;;;;4.47;3.22;;;;;;;21.68;60.27;101289.16;5035126;28;20049;-57
2021/06/28 03:42:32;;;;;;;4.43;3.03;;;;;;;21.66;60.15;101284.00;5034924;28;20317;-60
2021/06/28 03:44:57;;;;;;;5.85;3.38;;;;;;;21.68;60.03;101283.84;5034527;28;20021;-57
2021/06/28 03:47:23;;;;;;;5.03;3.50;;;;;;;21.68;60.21;101290.03;5034893;28;20021;-56
2021/06/28 03:49:48;;;;;;;4.75;3.42;;;;;;;21.67;60.19;101285.69;5034303;28;20481;-56
2021/06/28 03:52:13;;;;;;;6.10;3.20;;;;;;;21.68;60.08;101283.84;5034807;28;20049;-57
2021/06/28 03:54:38;;;;;;;5.43;3.30;;;;;;;21.67;59.97;101293.63;5034754;28;20742;-64
2021/06/28 03:57:04;;;;;;;5.00;3.45;;;;;;;21.66;60.06;101291.94;5034114;28;20043;-57
2021/06/28 03:59:29;;;;;;;4.57;3.50;;;;;;;21.65;60.00;101295.59;5033941;28;20021;-57
2021/06/28 04:01:57;;;;;;;4.78;3.60;;;;;;;21.66;59.92;101294.59;5034846;28;20029;-57
2021/06/28 04:04:22;;;;;;;4.60;3.10;;;;;;;21.66;59.95;101291.94;5033719;28;20026;-57
2021/06/28 04:06:48;;;;;;;4.80;3.45;;;;;;;21.65;60.00;101290.28;5034907;28;20473;-57
2021/06/28 04:09:13;;;;;;;6.07;3.50;;;;;;;21.65;59.94;101285.00;5034272;28;20111;-57
2021/06/28 04:11:38;;;;;;;4.97;3.45;;;;;;;21.65;59.92;101281.47;5033527;28;20381;-56
2021/06/28 04:14:04;;;;;;;4.88;3.30;;;;;;;21.65;59.92;101290.28;5033922;28;20021;-56
2021/06/28 04:16:30;;;;;;;4.47;3.08;;;;;;;21.66;59.67;101283.16;5034337;28;20028;-56
2021/06/28 04:18:55;;;;;;;4.57;3.28;;;;;;;21.65;60.12;101282.34;5033506;28;20066;-56
2021/06/28 04:21:20;;;;;;;5.72;3.30;;;;;;;21.65;60.13;101282.34;5033805;28;20065;-56
2021/06/28 04:23:49;;;;;;;4.30;3.13;;;;;;;21.65;59.89;101278.81;5034091;28;20056;-56
2021/06/28 04:26:14;;;;;;;6.97;3.40;;;;;;;21.63;60.09;101273.66;5032911;28;20041;-56
2021/06/28 04:28:40;;;;;;;4.75;3.60;;;;;;;21.65;59.93;101277.03;5033727;28;20052;-57
2021/06/28 04:31:05;;;;;;;5.10;3.60;;;;;;;21.66;60.09;101273.38;5033836;28;20416;-56
2021/06/28 04:33:31;;;;;;;5.00;3.45;;;;;;;21.65;59.98;101276.19;5033322;28;20377;-56
2021/06/28 04:35:56;;;;;;;4.75;3.65;;;;;;;21.65;59.94;101270.88;5033933;28;20026;-56
2021/06/28 04:38:22;;;;;;;5.20;3.70;;;;;;;21.65;59.99;101273.53;5033538;28;20056;-57
2021/06/28 04:40:51;;;;;;;5.85;3.85;;;;;;;21.66;60.35;101280.50;5032872;28;20022;-56
2021/06/28 04:43:16;;;;;;;4.90;3.58;;;;;;;21.66;60.05;101280.50;5033410;28;20094;-55
2021/06/28 04:45:41;;;;;;;5.22;3.67;;;;;;;21.65;60.05;101286.78;5033661;28;20096;-56
2021/06/28 04:48:10;;;;;;;4.88;3.55;;;;;;;21.66;59.93;101285.81;5032632;28;20108;-55
2021/06/28 04:50:38;;;;;;;4.53;3.33;;;;;;;21.66;59.93;101286.66;5033275;28;20620;-57
2021/06/28 04:53:03;;;;;;;5.72;3.58;;;;;;;21.66;60.11;101286.66;5032288;28;20059;-56
2021/06/28 04:55:29;;;;;;;5.53;3.55;;;;;;;21.64;60.22;101288.59;5033629;28;20118;-56
2021/06/28 04:57:55;;;;;;;5.13;3.78;;;;;;;21.66;59.89;101286.66;5033309;28;20036;-56
2021/06/28 05:00:24;;;;;;;6.10;3.45;;;;;;;21.66;60.15;101284.00;5032281;28;20529;-57
2021/06/28 05:02:49;;;;;;;4.82;3.40;;;;;;;21.65;60.13;101282.34;5033187;28;20017;-57
2021/06/28 05:05:18;;;;;;;4.70;3.45;;;;;;;21.67;60.11;101279.56;5031432;28;20039;-56
2021/06/28 05:07:44;;;;;;;5.05;3.50;;;;;;;21.66;60.21;101277.88;5032408;28;20036;-56
2021/06/28 05:10:12;;;;;;;5.55;3.83;;;;;;;21.67;60.12;101279.56;5032570;28;20025;-57
2021/06/28 05:12:37;;;;;;;4.57;3.38;;;;;;;21.67;60.07;101276.91;5033172;28;20028;-56
2021/06/28 05:15:04;;;;;;;4.78;3.40;;;;;;;21.66;60.21;101276.03;5031792;28;20041;-56
2021/06/28 05:17:30;;;;;;;5.45;3.65;;;;;;;21.66;60.20;101284.00;5032644;28;20048;-57
2021/06/28 05:19:55;;;;;;;5.28;3.47;;;;;;;21.67;60.28;101283.03;5032363;28;20025;-57
2021/06/28 05:22:20;;;;;;;7.20;3.20;;;;;;;21.68;60.18;101286.50;5031489;28;20032;-56
2021/06/28 05:24:46;;;;;;;5.27;3.67;;;;;;;21.67;60.14;101291.00;5032192;28;20283;-57
2021/06/28 05:27:11;;;;;;;4.70;3.50;;;;;;;21.67;60.29;101285.69;5032530;28;20274;-57
2021/06/28 05:29:36;;;;;;;4.55;3.45;;;;;;;21.66;60.23;101284.00;5031572;28;20041;-56
2021/06/28 05:32:02;;;;;;;5.80;3.72;;;;;;;21.67;60.35;101283.03;5032512;28;20021;-57
2021/06/28 05:34:27;;;;;;;6.35;3.50;;;;;;;21.67;60.29;101277.72;5032761;28;20438;-56
2021/06/28 05:36:55;;;;;;;5.10;3.63;;;;;;;21.68;60.25;101286.50;5031828;28;20034;-57
2021/06/28 05:39:20;;;;;;;5.00;3.58;;;;;;;21.69;60.25;101282.91;5032500;28;20278;-57
2021/06/28 05:41:46;;;;;;;5.50;3.85;;;;;;;21.68;60.41;101275.91;5032659;28;20094;-55
2021/06/28 05:44:11;;;;;;;5.65;3.53;;;;;;;21.68;60.20;101276.75;5031610;28;20029;-56
2021/06/28 05:46:36;;;;;;;6.10;3.55;;;;;;;21.69;60.33;101273.13;5032370;28;20038;-57
2021/06/28 05:49:02;;;;;;;5.75;3.72;;;;;;;21.69;60.27;101272.28;5032160;28;20557;-56
2021/06/28 05:51:27;;;;;;;4.70;3.50;;;;;;;21.69;60.09;101270.47;5031555;28;20032;-56
2021/06/28 05:53:53;;;;;;;5.13;3.60;;;;;;;21.69;60.24;101267.81;5032472;28;20026;-55
2021/06/28 05:56:18;;;;;;;5.32;3.78;;;;;;;21.70;60.08;101263.34;5031286;28;20053;-57
2021/06/28 05:58:44;;;;;;;5.50;3.45;;;;;;;21.70;60.12;101258.88;5032038;28;20026;-57
2021/06/28 06:01:09;;;;;;;5.10;3.72;;;;;;;21.71;60.21;101257.91;5031859;28;20022;-57
2021/06/28 06:03:36;;;;;;;6.38;3.40;;;;;;;21.71;60.29;101259.72;5031300;28;20029;-58
2021/06/28 06:06:02;;;;;;;4.90;3.38;;;;;;;21.71;60.12;101255.25;5032200;28;20029;-57
2021/06/28 06:08:27;;;;;;;5.60;3.30;;;;;;;21.72;60.31;101259.56;5032476;28;20029;-58
2021/06/28 06:10:55;;;;;;;4.75;3.22;;;;;;;21.72;60.07;101264.06;5031519;28;20017;-57
2021/06/28 06:13:21;;;;;;;4.60;3.20;;;;;;;21.70;60.03;101258.06;5032075;28;20037;-57
2021/06/28 06:15:47;;;;;;;5.68;3.50;;;;;;;21.72;60.09;101261.41;5032336;28;20033;-56
2021/06/28 06:18:13;;;;;;;4.45;3.10;;;;;;;21.70;60.13;101250.09;5030962;28;20021;-57
2021/06/28 06:20:38;;;;;;;4.82;3.33;;;;;;;21.71;60.05;101247.31;5031701;28;20036;-58
2021/06/28 06:23:03;;;;;;;5.72;3.35;;;;;;;21.76;60.22;101248.69;5030981;28;20075;-58
2021/06/28 06:25:29;;;;;;;5.47;4.00;;;;;;;21.76;60.48;101240.72;5031279;28;20029;-59
2021/06/28 06:27:54;;;;;;;4.65;3.65;;;;;;;21.78;60.40;101244.06;5031575;28;20401;-56
2021/06/28 06:30:20;;;;;;;5.75;3.58;;;;;;;21.79;60.46;101235.97;5031551;28;20037;-57
2021/06/28 06:32:50;;;;;;;5.85;3.80;;;;;;;21.82;60.57;101226.91;5031190;28;20022;-60
2021/06/28 06:35:17;;;;;;;6.60;4.38;;;;;;;21.85;60.79;101230.13;5031310;28;20561;-58
2021/06/28 06:37:42;;;;;;;6.78;4.22;;;;;;;21.88;60.97;101245.75;5032042;28;20053;-57
2021/06/28 06:40:09;;;;;;;5.88;4.32;;;;;;;21.88;61.27;101239.63;5030810;28;20056;-58
2021/06/28 06:42:44;;;;;;;6.88;4.75;;;;;;;21.92;61.48;101252.47;5031994;28;20533;-58
2021/06/28 06:45:10;;;;;;;7.05;4.72;;;;;;;21.96;61.47;101252.19;5031365;28;20504;-57
2021/06/28 06:47:35;;;;;;;6.65;5.07;;;;;;;21.96;61.45;101252.19;5031485;28;20018;-59
2021/06/28 06:50:01;;;;;;;7.80;5.87;;;;;;;21.96;61.52;101260.97;5031565;28;20041;-57
2021/06/28 06:52:29;;;;;;;9.82;5.35;;;;;;;21.99;61.57;101267.84;5032011;28;20328;-60
2021/06/28 06:54:54;;;;;;;7.25;5.32;;;;;;;22.00;61.54;101278.31;5030962;28;20036;-58
2021/06/28 06:57:20;;;;;;;8.02;5.88;;;;;;;22.00;61.77;101274.81;5031463;28;20017;-59
2021/06/28 06:59:45;;;;;;;10.82;6.45;;;;;;;22.01;62.09;101274.66;4978544;28;20041;-58
2021/06/28 07:02:10;;;;;;;7.70;6.40;;;;;;;22.01;62.20;101260.56;5031270;28;20029;-58
2021/06/28 07:04:36;;;;;;;8.73;6.00;;;;;;;22.02;62.17;101256.94;5031573;28;20087;-57
2021/06/28 07:07:02;;;;;;;7.90;5.93;;;;;;;22.02;62.38;101257.78;5030815;28;20109;-58
2021/06/28 07:09:28;;;;;;;9.68;6.55;;;;;;;22.03;62.43;101266.56;5031423;28;20593;-57
2021/06/28 07:11:54;;;;;;;8.30;6.53;;;;;;;22.03;62.70;101272.72;5031780;28;20021;-57
2021/06/28 07:14:20;;;;;;;7.28;5.82;;;;;;;22.05;62.91;101281.38;5029198;28;20025;-57
2021/06/28 07:16:45;;;;;;;8.63;6.53;;;;;;;22.05;62.92;101284.03;5031504;28;20136;-56
2021/06/28 07:19:10;;;;;;;8.80;6.97;;;;;;;22.09;63.50;101284.59;5031834;28;20029;-59
2021/06/28 07:21:37;;;;;;;12.00;7.63;;;;;;;22.12;63.93;101286.97;5032165;28;20460;-58
2021/06/28 07:24:06;;;;;;;10.43;7.93;;;;;;;22.16;64.30;101298.13;5031811;28;20064;-58
2021/06/28 07:26:32;;;;;;;8.40;7.00;;;;;;;22.19;64.19;101301.38;5032121;28;20067;-59
2021/06/28 07:29:00;;;;;;;11.07;7.90;;;;;;;22.20;64.33;101308.31;5030599;28;20045;-58
2021/06/28 07:31:27;;;;;;;9.35;7.57;;;;;;;22.22;63.91;101303.75;5031144;28;20080;-57
2021/06/28 07:33:52;;;;;;;9.00;7.20;;;;;;;22.23;64.05;101308.03;5031993;28;20026;-58
2021/06/28 07:36:18;;;;;;;9.25;7.28;;;;;;;22.23;64.38;101301.91;5034369;28;20121;-60
2021/06/28 07:38:43;;;;;;;11.05;7.20;;;;;;;22.26;64.30;101291.84;5035095;28;20061;-60
2021/06/28 07:41:09;;;;;;;8.63;6.72;;;;;;;22.26;64.26;101286.53;5034783;28;20025;-59
2021/06/28 07:43:35;;;;;;;7.97;6.47;;;;;;;22.28;64.42;101289.03;5034128;28;20021;-59
2021/06/28 07:46:07;;;;;;;7.78;6.47;;;;;;;22.29;64.28;101290.72;5034896;28;20105;-58
2021/06/28 07:48:33;;;;;;;9.88;7.40;;;;;;;22.31;64.54;101285.31;5035027;28;20163;-58
2021/06/28 07:50:58;;;;;;;8.77;7.20;;;;;;;22.29;64.64;101282.75;5034047;28;20523;-58
2021/06/28 07:53:24;;;;;;;10.63;6.60;;;;;;;22.27;64.95;101282.91;5034940;28;20168;-59
2021/06/28 07:55:49;;;;;;;8.38;6.78;;;;;;;22.28;64.70;101283.72;5035744;28;20049;-59
2021/06/28 07:58:19;;;;;;;9.18;7.10;;;;;;;22.32;64.33;101281.66;5035027;28;20030;-59
2021/06/28 08:00:45;;;;;;;10.25;7.00;;;;;;;22.31;64.95;101272.03;5035874;28;20041;-60
2021/06/28 08:03:10;;;;;;;7.53;6.18;;;;;;;22.28;64.89;101271.28;5034665;28;20025;-59
2021/06/28 08:05:37;;;;;;;8.35;6.65;;;;;;;22.30;65.20;101265.88;5035401;28;20025;-59
2021/06/28 08:08:03;;;;;;;8.55;6.78;;;;;;;22.30;65.06;101265.03;5034283;28;20028;-60
2021/06/28 08:10:31;;;;;;;10.25;6.93;;;;;;;22.31;65.01;101261.41;5033875;28;20090;-59
2021/06/28 08:12:56;;;;;;;7.97;5.97;;;;;;;22.35;65.05;101271.63;5035363;28;20021;-59
2021/06/28 08:15:25;;;;;;;8.00;5.82;;;;;;;22.37;64.88;101272.31;5034152;28;20437;-60
2021/06/28 08:17:51;;;;;;;8.77;6.40;;;;;;;22.35;65.11;101273.41;5033954;28;20033;-60
2021/06/28 08:20:19;;;;;;;9.25;6.18;;;;;;;22.34;64.91;101256.66;5034369;28;20028;-58
2021/06/28 08:22:45;;;;;;;8.30;6.88;;;;;;;22.35;65.21;101271.63;5034503;28;20041;-59
2021/06/28 08:25:12;;;;;;;10.18;7.00;;;;;;;22.32;65.74;101265.72;5033354;28;20018;-58
2021/06/28 08:27:37;;;;;;;8.80;6.25;;;;;;;22.31;65.68;101278.19;5034181;28;20030;-58
2021/06/28 08:30:05;;;;;;;8.50;6.78;;;;;;;22.31;66.04;101274.69;5033672;28;20045;-59
2021/06/28 08:32:30;;;;;;;9.73;6.68;;;;;;;22.28;66.19;101265.97;5033128;28;20022;-58
2021/06/28 08:34:56;;;;;;;9.43;6.22;;;;;;;22.28;66.11;101267.81;5034039;28;20079;-59
2021/06/28 08:37:22;;;;;;;9.23;7.38;;;;;;;22.30;66.24;101267.69;5033852;28;20025;-58
2021/06/28 08:39:48;;;;;;;8.27;6.72;;;;;;;22.32;66.28;101268.38;5033611;28;20448;-59
2021/06/28 08:42:15;;;;;;;7.97;6.25;;;;;;;22.33;66.38;101276.22;5034453;28;20064;-59
2021/06/28 08:44:43;;;;;;;8.23;6.00;;;;;;;22.36;66.43;101283.06;5033963;28;20036;-60
2021/06/28 08:47:08;;;;;;;7.15;5.68;;;;;;;22.36;66.57;101281.22;5032883;28;20122;-58
2021/06/28 08:49:40;;;;;;;7.45;6.60;;;;;;;22.37;66.82;101282.91;5034252;28;20631;-59
2021/06/28 08:52:06;;;;;;;7.55;6.00;;;;;;;22.36;66.94;101283.06;5033459;28;20029;-59
2021/06/28 08:54:31;;;;;;;8.30;6.38;;;;;;;22.37;67.48;101293.53;5034047;28;20492;-59
2021/06/28 08:56:57;;;;;;;9.30;6.88;;;;;;;22.38;67.92;101291.72;5033561;28;20026;-60
2021/06/28 08:59:23;;;;;;;7.78;5.97;;;;;;;22.36;67.39;101289.19;5032344;28;20112;-60
2021/06/28 09:01:49;;;;;;;7.45;6.05;;;;;;;22.35;67.47;101284.88;5034092;28;20539;-59
2021/06/28 09:04:14;;;;;;;8.02;5.88;;;;;;;22.37;67.44;101292.72;5033736;28;20106;-60
2021/06/28 09:06:40;;;;;;;7.43;6.05;;;;;;;22.36;67.64;101288.38;5032899;28;20027;-59
2021/06/28 09:09:11;;;;;;;8.07;6.25;;;;;;;22.36;67.74;101291.84;5033270;28;20041;-60
2021/06/28 09:11:38;;;;;;;8.23;6.55;;;;;;;22.35;68.37;101298.16;5033379;28;20025;-60
2021/06/28 09:14:06;;;;;;;7.68;6.07;;;;;;;22.35;68.73;101295.50;5032408;28;20025;-60
2021/06/28 09:16:33;;;;;;;7.88;6.18;;;;;;;22.35;68.41;101287.53;5033427;28;20095;-59
2021/06/28 09:19:02;;;;;;;8.18;6.35;;;;;;;22.34;68.40;101285.03;5033150;28;20048;-58
2021/06/28 09:21:36;;;;;;;9.05;6.07;;;;;;;22.34;68.91;101295.66;5032426;28;20034;-59
2021/06/28 09:24:05;;;;;;;7.70;6.03;;;;;;;22.34;69.11;101298.31;5033071;28;20393;-59
2021/06/28 09:26:34;;;;;;;8.38;6.32;;;;;;;22.33;69.38;101294.78;5034526;28;20396;-65
2021/06/28 09:29:02;;;;;;;7.50;5.93;;;;;;;22.33;68.87;101296.63;5032942;28;20440;-60
2021/06/28 09:31:39;;;;;;;6.57;5.72;;;;;;;22.34;68.96;101298.31;5033162;28;20029;-59
2021/06/28 09:34:05;;;;;;;7.70;5.30;;;;;;;22.35;68.76;101308.78;5032853;28;20025;-58
2021/06/28 09:36:31;;;;;;;9.73;5.68;;;;;;;22.35;68.77;101307.94;5032120;28;20037;-59
2021/06/28 09:38:56;;;;;;;8.65;5.85;;;;;;;22.37;68.94;101311.31;5033204;28;20326;-59
2021/06/28 09:41:31;;;;;;;7.95;5.85;;;;;;;22.38;69.00;101308.50;5031885;28;20033;-58
2021/06/28 09:44:04;;;;;;;7.82;5.65;;;;;;;22.36;68.97;101313.09;5032831;28;20049;-58
2021/06/28 09:46:30;;;;;;;7.13;5.78;;;;;;;22.39;68.92;101312.81;5032784;28;20358;-59
2021/06/28 09:48:56;;;;;;;7.82;5.60;;;;;;;22.40;68.96;101314.50;5031878;28;20095;-59
2021/06/28 09:51:36;;;;;;;7.63;5.55;;;;;;;22.40;69.01;101311.84;5032897;28;20552;-58
2021/06/28 09:54:14;;;;;;;7.20;5.57;;;;;;;22.43;68.86;101316.88;5033593;28;20028;-59
2021/06/28 09:56:52;;;;;;;7.43;5.18;;;;;;;22.45;68.63;101312.25;5031774;28;20034;-59
2021/06/28 09:59:24;;;;;;;7.05;5.72;;;;;;;22.46;68.76;101315.75;5032988;28;20056;-60
2021/06/28 10:02:09;;;;;;;7.13;5.53;;;;;;;22.48;68.64;101312.94;5033282;28;20458;-58
2021/06/28 10:04:44;;;;;;;7.47;5.82;;;;;;;22.49;68.52;101314.63;5032243;28;20029;-59
2021/06/28 10:07:17;;;;;;;7.35;5.68;;;;;;;22.50;68.75;101316.31;5032691;28;20104;-59
2021/06/28 10:09:46;;;;;;;7.93;5.88;;;;;;;22.50;68.49;101327.75;5032382;28;20055;-58
2021/06/28 10:12:19;;;;;;;7.60;5.60;;;;;;;22.50;68.69;101324.28;5032349;28;20021;-58
2021/06/28 10:14:45;;;;;;;7.90;6.35;;;;;;;22.50;68.77;101332.25;5032257;28;20079;-58
2021/06/28 10:17:13;;;;;;;6.78;5.40;;;;;;;22.49;69.09;101323.41;5031348;28;20117;-58
2021/06/28 10:19:42;;;;;;;8.38;6.68;;;;;;;22.50;69.12;101326.94;5032334;28;20079;-59
2021/06/28 10:22:07;;;;;;;8.70;5.85;;;;;;;22.49;69.18;101322.59;5031856;28;20419;-58
2021/06/28 10:24:34;;;;;;;7.68;5.95;;;;;;;22.47;69.20;101333.34;5031342;28;20034;-60
2021/06/28 10:27:01;;;;;;;7.28;5.88;;;;;;;22.49;69.15;101327.91;5032066;28;20485;-59
2021/06/28 10:29:27;;;;;;;7.50;5.78;;;;;;;22.47;68.77;101330.69;5031836;28;20073;-59
2021/06/28 10:31:53;;;;;;;7.93;5.88;;;;;;;22.44;69.08;101329.16;5031701;28;20435;-60
2021/06/28 10:34:18;;;;;;;8.23;6.20;;;;;;;22.41;69.60;101339.22;5031806;28;20021;-66
2021/06/28 10:36:45;;;;;;;7.47;6.30;;;;;;;22.40;70.00;101337.56;5032076;28;20489;-62
2021/06/28 10:39:24;;;;;;;9.45;6.18;;;;;;;22.39;70.25;101325.25;5031139;28;20091;-60
2021/06/28 10:41:53;;;;;;;8.23;6.10;;;;;;;22.39;70.58;101328.75;5032232;28;20114;-59
2021/06/28 10:44:23;;;;;;;7.70;5.95;;;;;;;22.39;70.23;101333.22;5031707;28;20410;-61
2021/06/28 10:46:52;;;;;;;8.75;6.80;;;;;;;22.44;71.40;101333.63;5031348;28;20025;-60
2021/06/28 10:49:53;;;;;;;9.48;7.80;;;;;;;22.41;71.42;101332.13;5031448;28;20045;-59
2021/06/28 10:52:45;;;;;;;9.18;7.05;;;;;;;22.37;71.24;101332.53;5008759;28;20033;-58
2021/06/28 10:55:23;;;;;;;10.00;7.35;;;;;;;22.37;71.35;101333.38;5031125;28;20124;-58
2021/06/28 10:57:53;;;;;;;8.30;6.97;;;;;;;22.36;71.05;101331.69;5031718;28;20159;-60
2021/06/28 11:00:57;;;;;;;8.02;6.70;;;;;;;22.36;70.90;101323.72;5030921;28;20025;-60
2021/06/28 11:03:22;;;;;;;8.77;7.30;;;;;;;22.36;70.92;101322.88;5031475;28;20038;-59
2021/06/28 11:06:17;;;;;;;8.30;6.87;;;;;;;22.36;70.78;101315.75;5030717;28;20026;-59
2021/06/28 11:09:04;;;;;;;7.85;6.60;;;;;;;22.38;70.97;101323.56;5033503;28;20061;-61
2021/06/28 11:11:47;;;;;;;9.60;6.15;;;;;;;22.40;70.46;101316.34;5035674;28;20026;-61
2021/06/28 11:14:18;;;;;;;8.75;6.30;;;;;;;22.41;70.45;101310.88;5034974;28;20353;-63
2021/06/28 11:17:06;;;;;;;7.45;6.43;;;;;;;22.42;70.39;101317.03;5035605;28;20036;-61
2021/06/28 11:19:49;;;;;;;8.68;6.82;;;;;;;22.42;70.36;101309.88;5035684;28;20056;-60
2021/06/28 11:22:26;;;;;;;7.80;6.32;;;;;;;22.43;70.31;101318.66;5035102;28;20029;-61
2021/06/28 11:25:01;;;;;;;8.02;6.20;;;;;;;22.44;70.47;101315.06;5035492;28;20030;-61
2021/06/28 11:27:27;;;;;;;7.53;6.30;;;;;;;22.42;70.39;101303.75;5034942;28;20108;-60